• Join FlightAware (Why Join?)
  • Login
  • US Flag 
03:19AM EST


 

Airport Tracker/Info


-or-


 

Live Flight TrackerFlight Track Log ✈ JA-614J ✈ 22-Apr-2013 ✈ ZBAA / PEK - RJAA / NRT

Flight Track Log - Related Links

Times and Time Zones

All times are in EDT time to prevent confusion due to time zone crossing. See the JA-614J flight status page for this flight to view local times or setup timezone preferences in your user account.

Time Position Orientation Groundspeed Altitude Reporting Facility
EDT Latitude Longitude Course Direction KTS MPH feet Rate Location/Type
08:49PM 40.0477 117.0226 95° East  Level Estimated
08:50PM 40.0366 117.1686 96° East  Level Estimated
08:51PM 40.0252 117.3145 96° East  Level Estimated
08:52PM 40.0137 117.4603 96° East  Level Estimated
08:53PM 40.0020 117.6061 96° East  Level Estimated
08:54PM 39.9901 117.7518 96° East  Level Estimated
08:55PM 39.9780 117.8975 96° East  Level Estimated
08:56PM 39.9661 118.0398 96° East  Level Estimated
08:57PM 39.9539 118.1821 96° East  Level Estimated
08:58PM 39.9416 118.3243 96° East  Level Estimated
08:59PM 39.9291 118.4665 96° East  Level Estimated
09:00PM 39.9164 118.6086 97° East  Level Estimated
09:01PM 39.9036 118.7506 97° East  Level Estimated
09:02PM 39.8906 118.8926 97° East  Level Estimated
09:03PM 39.8774 119.0345 97° East  Level Estimated
09:04PM 39.8640 119.1764 97° East  Level Estimated
09:05PM 39.8505 119.3183 97° East  Level Estimated
09:06PM 39.8368 119.4600 97° East  Level Estimated
09:07PM 39.8229 119.6018 97° East  Level Estimated
09:08PM 39.8089 119.7434 97° East  Level Estimated
09:09PM 39.7946 119.8850 97° East  Level Estimated
09:10PM 39.7802 120.0266 97° East  Level Estimated
09:11PM 39.7657 120.1680 98° East  Level Estimated
09:12PM 39.7509 120.3094 98° East  Level Estimated
09:13PM 39.7355 120.4558 98° East  Level Estimated
09:14PM 39.7199 120.6021 98° East  Level Estimated
09:15PM 39.7040 120.7484 98° East  Level Estimated
09:16PM 39.6881 120.8946 98° East  Level Estimated
09:17PM 39.6719 121.0407 98° East  Level Estimated
09:18PM 39.6555 121.1867 98° East  Level Estimated
09:19PM 39.6390 121.3327 98° East  Level Estimated
09:20PM 39.6222 121.4786 98° East  Level Estimated
09:21PM 39.6053 121.6244 99° East  Level Estimated
09:22PM 39.5882 121.7702 99° East  Level Estimated
09:23PM 39.5710 121.9159 99° East  Level Estimated
09:24PM 39.5535 122.0615 99° East  Level Estimated
09:25PM 39.5359 122.2070 99° East  Level Estimated
09:26PM 39.5181 122.3525 99° East  Level Estimated
09:27PM 39.5001 122.4979 99° East  Level Estimated
09:28PM 39.4819 122.6432 99° East  Level Estimated
09:29PM 39.4635 122.7885 99° East  Level Estimated
09:30PM 39.4450 122.9336 99° East  Level Estimated
09:31PM 39.4263 123.0787 99° East  Level Estimated
09:32PM 39.4074 123.2237 100° East  Level Estimated
09:33PM 39.3883 123.3686 100° East  Level Estimated
09:34PM 39.3690 123.5135 100° East  Level Estimated
09:35PM 39.3496 123.6583 100° East  Level Estimated
09:36PM 39.3300 123.8029 100° East  Level Estimated
09:37PM 39.3102 123.9476 100° East  Level Estimated
09:38PM 39.2902 124.0921 100° East  Level Estimated
09:39PM 39.2700 124.2365 100° East  Level Estimated
09:40PM 39.2497 124.3809 100° East  Level Estimated
09:41PM 39.2292 124.5251 100° East  Level Estimated
09:42PM 39.2085 124.6693 100° East  Level Estimated
09:43PM 39.1876 124.8134 101° East  Level Estimated
09:44PM 39.1666 124.9575 101° East  Level Estimated
09:45PM 39.1454 125.1014 101° East  Level Estimated
09:46PM 39.1240 125.2452 101° East  Level Estimated
09:47PM 39.1024 125.3890 101° East  Level Estimated
09:48PM 39.0806 125.5327 101° East  Level Estimated
09:49PM 39.0587 125.6762 101° East  Level Estimated
09:50PM 39.0366 125.8197 101° East  Level Estimated
09:50PM 37.1760 126.1140 101° East 551 634 37,000  Level FlightAware
09:51PM 39.0143 125.9631 101° East  Level Estimated
09:51PM 37.1850 126.2830 86° East 546 628 37,000  Level FlightAware
09:51PM 37.1920 126.4250 86° East 545 627 37,000  Level FlightAware
09:52PM 37.1980 126.5980 87° East 549 632 37,000  Level FlightAware
09:53PM 37.2040 126.7500 87° East 550 633 37,000  Level FlightAware
09:54PM 37.2100 126.8910 87° East 551 634 37,000  Level FlightAware
09:54PM 37.2360 127.0110 75° East 501 577 37,000  Level FlightAware
09:55PM 37.2960 127.1080 52° Northeast 467 537 37,000  Level FlightAware
09:56PM 37.3530 127.1890 48° Northeast 465 535 37,000  Level FlightAware
09:56PM 37.4110 127.2710 48° Northeast 467 537 37,000  Level FlightAware
09:57PM 37.4740 127.3670 50° Northeast 492 566 37,000  Level FlightAware
09:58PM 37.5040 127.4830 72° East 530 610 37,000 480 Level FlightAware
09:59PM 37.5260 127.6160 78° East 530 610 37,700 900 Climbing FlightAware
09:59PM 37.5440 127.7350 79° East 533 613 38,300 780 Climbing FlightAware
10:00PM 37.5640 127.8600 79° East 537 618 38,800 480 Climbing FlightAware
10:01PM 37.5850 127.9990 79° East 531 611 39,000 120 Climbing FlightAware
10:01PM 37.6040 128.1200 79° East 522 601 39,000  Level FlightAware
10:02PM 37.6250 128.2510 79° East 518 596 39,000  Level FlightAware
10:03PM 37.6430 128.3730 79° East 520 598 39,000  Level FlightAware
10:03PM 37.6560 128.4870 82° East 530 610 39,000  Level FlightAware
10:04PM 37.6650 128.6600 86° East 530 610 39,000  Level FlightAware
10:05PM 37.6710 128.7650 86° East 530 610 39,000  Level FlightAware
10:06PM 37.6770 128.8700 86° East 530 610 39,000  Level FlightAware
10:06PM 37.6830 128.9750 86° East 530 610 39,000  Level FlightAware
10:07PM 37.6880 129.0800 87° East 530 610 39,000  Level FlightAware
10:08PM 37.6960 129.2110 86° East 530 610 39,000  Level FlightAware
10:09PM 37.7010 129.3160 87° East 530 610 39,000  Level FlightAware
10:09PM 37.7070 129.4220 86° East 530 610 39,000  Level FlightAware
10:10PM 37.7130 129.5270 86° East 530 610 39,000  Level FlightAware
10:11PM 37.7190 129.6320 86° East 530 610 39,000  Level FlightAware
10:11PM 37.7250 129.7370 86° East 530 610 39,000  Level FlightAware
10:12PM 37.7320 129.8680 86° East 530 610 39,000  Level FlightAware
10:13PM 37.7380 129.9740 86° East 530 610 39,000  Level FlightAware
10:13PM 37.7430 130.0790 87° East 530 610 39,000  Level FlightAware
10:16PM 37.7001 130.3733 100° East  Level Estimated
10:17PM 37.6793 130.5144 101° East  Level Estimated
10:18PM 37.6583 130.6555 101° East  Level Estimated
10:19PM 37.6371 130.7964 101° East  Level Estimated
10:20PM 37.6158 130.9373 101° East  Level Estimated
10:21PM 37.5943 131.0781 101° East  Level Estimated
10:22PM 37.5726 131.2189 101° East  Level Estimated
10:23PM 37.5507 131.3595 101° East  Level Estimated
10:24PM 37.5289 131.4992 101° East  Level Estimated
10:25PM 37.5068 131.6389 101° East  Level Estimated
10:26PM 37.4846 131.7784 101° East  Level Estimated
10:27PM 37.4622 131.9179 101° East  Level Estimated
10:28PM 37.4397 132.0573 101° East  Level Estimated
10:28PM 36.3960 132.6120 101° East 521 600 39,000  Level FlightAware
10:30PM 36.3827 132.8804 93° East  Level Estimated
10:31PM 36.3755 133.0204 94° East  Level Estimated
10:31PM 36.3530 133.1680 94° East 525 604 39,000  Level FlightAware
10:31PM 36.3460 133.2770 95° East 526 605 39,000  Level FlightAware
10:33PM 36.3250 133.5370 96° East 529 609 39,000  Level FlightAware
10:34PM 36.3090 133.7310 96° East 530 610 39,000  Level FlightAware
10:35PM 36.2980 133.8600 96° East 530 610 39,000  Level FlightAware
10:35PM 36.2890 133.9740 96° East 531 611 39,000  Level FlightAware
10:36PM 36.2780 134.1060 96° East 532 612 39,000  Level FlightAware
10:37PM 36.2660 134.2360 96° East 533 613 39,000  Level FlightAware
10:37PM 36.2560 134.3560 96° East 534 615 39,000  Level FlightAware
10:38PM 36.2480 134.4750 95° East 532 612 39,000  Level FlightAware
10:39PM 36.2620 134.6130 83° East 526 605 39,000  Level FlightAware
10:39PM 36.2830 134.7410 78° East 526 605 39,000  Level FlightAware
10:40PM 36.3030 134.8630 78° East 527 606 39,000  Level FlightAware
10:41PM 36.3250 134.9960 78° East 525 604 39,000  Level FlightAware
10:42PM 36.3440 135.1120 78° East 525 604 39,000  Level FlightAware
10:42PM 36.3640 135.2310 78° East 524 603 39,000  Level FlightAware
10:43PM 36.3850 135.3600 79° East 524 603 39,000  Level FlightAware
10:44PM 36.4050 135.4830 79° East 526 605 39,000  Level FlightAware
10:44PM 36.4250 135.6130 79° East 527 606 39,000  Level FlightAware
10:45PM 36.4440 135.7300 79° East 528 608 39,000  Level FlightAware
10:46PM 36.4630 135.8480 79° East 528 608 39,000  Level FlightAware
10:46PM 36.4840 135.9830 79° East 529 609 39,000  Level FlightAware
10:47PM 36.5010 136.0940 79° East 531 611 39,000  Level FlightAware
10:48PM 36.5230 136.2390 79° East 532 612 39,000  Level FlightAware
10:49PM 36.5420 136.3580 79° East 532 612 39,000  Level FlightAware
10:49PM 36.5610 136.4860 79° East 533 613 39,000  Level FlightAware
10:50PM 36.5810 136.6160 79° East 533 613 39,000  Level FlightAware
10:51PM 36.5970 136.7220 79° East 534 615 39,000  Level FlightAware
10:51PM 36.6190 136.8740 80° East 533 613 39,000  Level FlightAware
10:52PM 36.6370 136.9970 80° East 530 610 39,000  Level FlightAware
10:53PM 36.6550 137.1160 79° East 530 610 39,000  Level FlightAware
10:53PM 36.6730 137.2470 80° East 529 609 39,000  Level FlightAware
10:54PM 36.6900 137.3700 80° East 528 608 39,000  Level FlightAware
10:55PM 36.7090 137.5050 80° East 526 605 39,000 -120 Level FlightAware
10:56PM 36.7260 137.6230 80° East 528 608 38,900 -720 Descending FlightAware
10:56PM 36.7410 137.7300 80° East 537 618 38,100 -1,440 Descending FlightAware
10:57PM 36.7590 137.8660 81° East 527 606 37,000 -1,320 Descending FlightAware
10:58PM 36.7760 137.9880 80° East 531 611 36,200 -1,200 Descending FlightAware
10:58PM 36.7920 138.1090 81° East 532 612 35,300 -1,440 Descending FlightAware
10:59PM 36.8120 138.2520 80° East 526 605 34,200 -1,440 Descending FlightAware
11:00PM 36.8290 138.3750 80° East 523 602 33,300 -900 Descending FlightAware
11:00PM 36.8460 138.5050 81° East 516 594 33,000 -240 Descending FlightAware
11:01PM 36.8620 138.6220 80° East 518 596 33,000 -240 Level FlightAware
11:02PM 36.8780 138.7420 81° East 527 606 32,700 -720 Descending FlightAware
11:03PM 36.8950 138.8790 81° East 520 598 32,000 -1,020 Descending FlightAware
11:03PM 36.9080 138.9790 81° East 519 597 31,400 -1,020 Descending FlightAware
11:04PM 36.9260 139.1130 80° East 523 602 30,700 -900 Descending FlightAware
11:05PM 36.9410 139.2310 81° East 523 602 30,100 -960 Descending FlightAware
11:05PM 36.9560 139.3480 81° East 520 598 29,400 -1,080 Descending FlightAware
11:06PM 36.9740 139.4900 81° East 502 578 28,600 -1,020 Descending FlightAware
11:07PM 36.9890 139.6070 81° East 503 579 28,000 -900 Descending FlightAware
11:07PM 37.0010 139.7020 81° East 503 579 27,500 -840 Descending FlightAware
11:08PM 37.0210 139.8620 81° East 494 568 26,700 -900 Descending FlightAware
11:09PM 37.0350 139.9780 81° East 488 562 26,100 -960 Descending FlightAware
11:09PM 37.0460 140.0630 81° East 487 560 25,600 -840 Descending FlightAware
11:10PM 37.0410 140.1880 93° East 472 543 25,000 -480 Descending FlightAware
11:11PM 36.9940 140.2960 119° Southeast 469 540 25,000  Level FlightAware
11:12PM 36.9160 140.3670 144° Southeast 457 526 25,000  Level FlightAware
11:13PM 36.7880 140.4330 158° South 432 497 25,000  Level FlightAware
11:14PM 36.6500 140.4630 170° South 423 487 25,000 -780 Level FlightAware
11:15PM 36.5130 140.4940 170° South 424 488 23,300 -2,040 Descending FlightAware
11:16PM 36.4340 140.5120 170° South 410 472 21,300 -3,000 Descending FlightAware
11:17PM 36.3480 140.5320 169° South 413 475 19,100 -2,760 Descending FlightAware
11:17PM 36.2760 140.5590 163° South 418 481 17,400 -2,520 Descending FlightAware
11:18PM 36.2050 140.5960 157° South 419 482 15,800 -1,800 Descending FlightAware
11:19PM 36.1250 140.6370 158° South 400 460 14,900 -1,200 Descending FlightAware
11:19PM 36.0550 140.6720 158° South 404 465 14,100 -1,200 Descending FlightAware
11:20PM 35.9740 140.6880 171° South 385 443 13,200 -1,140 Descending FlightAware
11:21PM 35.9040 140.6930 177° South 383 441 12,500 -1,800 Descending FlightAware
11:21PM 35.8230 140.6970 178° South 371 427 10,700 -1,800 Descending FlightAware
11:22PM 35.7560 140.6990 179° South 352 405 10,000 -540 Descending FlightAware
11:23PM 35.6960 140.6900 187° South 289 333 10,000 -300 Level FlightAware
11:23PM 35.6620 140.6760 198° South 269 310 9,700 -1,080 Descending FlightAware
11:24PM 35.6390 140.6680 196° South 257 296 9,200 -1,800 Descending FlightAware
11:24PM 35.6140 140.6580 198° South 255 293 8,500 -1,980 Descending FlightAware
11:24PM 35.5810 140.6380 206° Southwest 230 265 7,400 -1,920 Descending FlightAware
11:25PM 35.5690 140.6270 217° Southwest 225 259 7,100 -1,500 Descending FlightAware
11:25PM 35.5560 140.6030 236° Southwest 196 226 6,400 -1,740 Descending FlightAware
11:25PM 35.5540 140.5800 264° West 197 227 5,800 -1,740 Descending FlightAware
11:26PM 35.5640 140.5570 298° West 191 220 5,100 -1,680 Descending FlightAware
11:26PM 35.5750 140.5450 318° Northwest 190 219 4,700 -1,500 Descending FlightAware
11:27PM 35.5940 140.5290 326° Northwest 188 216 4,100 -1,080 Descending FlightAware
11:27PM 35.6260 140.5070 331° Northwest 188 216 3,500 -900 Descending FlightAware
11:28PM 35.6470 140.4920 330° Northwest 187 215 3,100 -960 Descending FlightAware
11:28PM 35.6630 140.4810 331° Northwest 187 215 2,800 -900 Descending FlightAware
11:29PM 35.6910 140.4610 330° Northwest 177 204 2,200 -900 Descending FlightAware
11:29PM 35.7170 140.4420 329° Northwest 149 171 1,600 -900 Descending FlightAware
11:30PM 35.7310 140.4320 330° Northwest 149 171 1,300 -900 Descending FlightAware
11:30PM 35.7510 140.4180 330° Northwest 139 160 800 -780 Descending FlightAware
11:31PM 35.7680 140.4050 328° Northwest 139 160 500 -360 Descending FlightAware
11:31PM 35.7800 140.3960 329° Northwest 139 160 500  Level FlightAware